Time;durP1;ratioP1;P1;durP2;ratioP2;P2;SDS_P1;SDS_P2;PMS_P1;PMS_P2;Temp;Humidity;BMP_temperature;BMP_pressure;BME280_temperature;BME280_humidity;BME280_pressure;Samples;Min_cycle;Max_cycle;Signal;HPM_P1;HPM_P2
2022/09/07 00:00:42;;;;;;;8.83;5.17;;;19.70;83.30;;;;;;5112275;28;20382;-71
2022/09/07 00:03:08;;;;;;;8.60;4.60;;;19.70;83.40;;;;;;5126639;28;20505;-70
2022/09/07 00:05:43;;;;;;;8.90;4.90;;;19.70;83.80;;;;;;5128322;28;20975;-70
2022/09/07 00:08:09;;;;;;;7.47;4.97;;;19.70;83.90;;;;;;5128427;28;20481;-71
2022/09/07 00:10:35;;;;;;;7.55;5.05;;;19.70;84.10;;;;;;5122682;28;20404;-71
2022/09/07 00:13:01;;;;;;;7.65;5.13;;;19.70;84.50;;;;;;5110402;28;20447;-70
2022/09/07 00:15:26;;;;;;;8.87;5.40;;;19.70;84.90;;;;;;5110127;28;20412;-71
2022/09/07 00:17:52;;;;;;;7.38;4.93;;;19.70;85.50;;;;;;5123962;27;20391;-71
2022/09/07 00:20:17;;;;;;;8.68;5.35;;;19.70;85.70;;;;;;5126191;27;20393;-71
2022/09/07 00:22:45;;;;;;;7.37;5.50;;;19.70;85.80;;;;;;5113457;27;20403;-70
2022/09/07 00:25:10;;;;;;;10.88;5.63;;;19.60;86.10;;;;;;5131578;27;20394;-71
2022/09/07 00:27:36;;;;;;;8.45;5.47;;;19.60;86.00;;;;;;5131629;27;20391;-71
2022/09/07 00:30:03;;;;;;;9.23;5.90;;;19.60;86.30;;;;;;5131099;27;20403;-71
2022/09/07 00:32:29;;;;;;;8.15;5.65;;;19.60;87.10;;;;;;5131863;27;20444;-70
2022/09/07 00:34:54;;;;;;;10.83;5.80;;;19.60;86.40;;;;;;5131258;27;20391;-70
2022/09/07 00:37:20;;;;;;;9.00;5.95;;;19.60;86.60;;;;;;5121891;27;20406;-71
2022/09/07 00:39:46;;;;;;;9.90;5.80;;;19.70;86.70;;;;;;5131256;27;20926;-71
2022/09/07 00:42:11;;;;;;;8.87;5.80;;;19.70;86.90;;;;;;5131489;27;20399;-70
2022/09/07 00:44:43;;;;;;;7.85;5.47;;;19.70;86.90;;;;;;5131504;27;20456;-70
2022/09/07 00:47:16;;;;;;;9.40;5.72;;;19.70;86.80;;;;;;5130939;27;20784;-71
2022/09/07 00:49:46;;;;;;;12.25;6.18;;;19.70;87.60;;;;;;5118763;27;20473;-71
2022/09/07 00:52:14;;;;;;;8.85;5.78;;;19.70;88.00;;;;;;5116004;27;20479;-70
2022/09/07 00:54:45;;;;;;;9.82;5.60;;;19.60;88.20;;;;;;5080729;28;20411;-70
2022/09/07 00:57:11;;;;;;;9.55;5.70;;;19.60;88.00;;;;;;5126478;27;20403;-71
2022/09/07 00:59:51;;;;;;;7.88;6.10;;;19.60;88.10;;;;;;5131372;27;20395;-71
2022/09/07 01:02:18;;;;;;;8.87;6.10;;;19.60;88.40;;;;;;5096499;27;20400;-70
2022/09/07 01:04:48;;;;;;;9.10;6.35;;;19.50;89.20;;;;;;5093441;27;20397;-71
2022/09/07 01:07:14;;;;;;;7.97;6.00;;;19.50;89.50;;;;;;5115225;27;21086;-71
2022/09/07 01:09:41;;;;;;;7.32;6.07;;;19.50;90.40;;;;;;5131279;27;20471;-71
2022/09/07 01:12:08;;;;;;;7.68;6.03;;;19.50;90.20;;;;;;5113512;27;20831;-71
2022/09/07 01:14:44;;;;;;;9.07;6.47;;;19.60;90.40;;;;;;5131367;27;20469;-71
2022/09/07 01:17:38;;;;;;;9.48;6.30;;;19.60;90.30;;;;;;5130504;27;20431;-71
2022/09/07 01:20:29;;;;;;;8.07;6.82;;;19.60;90.60;;;;;;5126584;27;20423;-70
2022/09/07 01:22:58;;;;;;;8.23;7.13;;;19.50;90.40;;;;;;5110666;28;20396;-71
2022/09/07 01:25:50;;;;;;;10.23;6.80;;;19.50;90.60;;;;;;5110842;27;20412;-70
2022/09/07 01:28:22;;;;;;;8.35;6.10;;;19.50;91.00;;;;;;5113301;27;20399;-71
2022/09/07 01:31:10;;;;;;;9.82;6.88;;;19.50;91.10;;;;;;5119120;27;20408;-71
2022/09/07 01:33:58;;;;;;;9.87;6.70;;;19.40;91.10;;;;;;5118263;27;20398;-71
2022/09/07 01:36:29;;;;;;;10.23;6.78;;;19.40;91.10;;;;;;5112663;27;20404;-71
2022/09/07 01:39:00;;;;;;;8.48;6.82;;;19.30;91.10;;;;;;5092139;28;20409;-71
2022/09/07 01:41:41;;;;;;;9.05;7.15;;;19.30;91.60;;;;;;5110203;28;20467;-70
2022/09/07 01:44:25;;;;;;;10.40;7.50;;;19.30;91.80;;;;;;5116605;27;20410;-71
2022/09/07 01:47:01;;;;;;;11.38;7.70;;;19.30;91.90;;;;;;5130092;27;20461;-70
2022/09/07 01:49:54;;;;;;;10.20;8.40;;;19.20;92.10;;;;;;5101487;27;20415;-71
2022/09/07 01:52:39;;;;;;;9.45;7.63;;;19.10;93.20;;;;;;5128480;27;20418;-71
2022/09/07 01:55:33;;;;;;;10.73;8.48;;;19.10;92.80;;;;;;5129469;27;20430;-71
2022/09/07 01:58:11;;;;;;;15.23;9.00;;;19.10;93.30;;;;;;5118221;27;20518;-71
2022/09/07 02:00:42;;;;;;;14.85;10.25;;;19.00;93.50;;;;;;5129090;27;20878;-71
2022/09/07 02:03:14;;;;;;;15.07;10.10;;;19.00;94.10;;;;;;5128906;27;20425;-71
2022/09/07 02:05:52;;;;;;;13.88;10.43;;;18.90;94.10;;;;;;5127719;27;20784;-71
2022/09/07 02:08:32;;;;;;;13.23;11.07;;;18.80;94.40;;;;;;5128584;27;20399;-71
2022/09/07 02:11:05;;;;;;;12.73;10.40;;;18.70;94.80;;;;;;5110056;27;20416;-71
2022/09/07 02:13:53;;;;;;;14.90;11.07;;;18.60;95.00;;;;;;5112231;27;20401;-71
2022/09/07 02:16:24;;;;;;;16.27;11.88;;;18.50;95.30;;;;;;5129659;27;20405;-71
2022/09/07 02:18:55;;;;;;;13.90;11.37;;;18.50;95.80;;;;;;5129064;27;20402;-71
2022/09/07 02:21:34;;;;;;;17.58;12.50;;;18.40;95.90;;;;;;5118789;27;20408;-71
2022/09/07 02:24:06;;;;;;;14.27;11.40;;;18.40;96.40;;;;;;5127408;27;20482;-71
2022/09/07 02:26:36;;;;;;;17.80;9.98;;;18.40;96.50;;;;;;5125245;27;20498;-71
2022/09/07 02:29:02;;;;;;;15.70;10.50;;;18.40;96.60;;;;;;5106389;28;20439;-71
2022/09/07 02:31:28;;;;;;;13.60;10.13;;;18.30;96.60;;;;;;5109060;28;20431;-71
2022/09/07 02:33:54;;;;;;;14.47;10.27;;;18.20;96.80;;;;;;5120806;27;20407;-71
2022/09/07 02:36:23;;;;;;;16.63;10.15;;;18.10;97.20;;;;;;5129117;27;20398;-71
2022/09/07 02:38:49;;;;;;;15.15;10.05;;;18.10;97.60;;;;;;5108541;28;20415;-71
2022/09/07 02:41:30;;;;;;;14.53;9.50;;;18.00;97.40;;;;;;5122633;27;20758;-71
2022/09/07 02:43:56;;;;;;;14.50;9.30;;;18.00;97.70;;;;;;5109924;27;20421;-71
2022/09/07 02:46:31;;;;;;;13.80;9.50;;;17.90;98.40;;;;;;5124486;27;20488;-71
2022/09/07 02:49:44;;;;;;;15.43;11.95;;;17.90;99.00;;;;;;5121540;27;20927;-71
2022/09/07 02:52:31;;;;;;;18.00;12.35;;;17.90;99.40;;;;;;5086031;27;20414;-71
2022/09/07 02:55:03;;;;;;;15.55;12.27;;;17.80;99.80;;;;;;5128746;27;20402;-71
2022/09/07 02:57:38;;;;;;;15.88;11.93;;;17.80;99.90;;;;;;5110146;27;20495;-71
2022/09/07 03:00:12;;;;;;;17.60;12.20;;;17.80;99.90;;;;;;5121788;27;20946;-71
2022/09/07 03:02:50;;;;;;;18.52;12.65;;;17.70;99.90;;;;;;5116356;27;20908;-71
2022/09/07 03:05:37;;;;;;;19.30;13.07;;;17.70;99.90;;;;;;5127986;27;20401;-71
2022/09/07 03:08:09;;;;;;;20.48;14.23;;;17.70;99.90;;;;;;5110752;28;20906;-71
2022/09/07 03:10:38;;;;;;;17.63;13.50;;;17.70;99.90;;;;;;5124669;27;20456;-71
2022/09/07 03:13:04;;;;;;;17.50;13.20;;;17.70;99.90;;;;;;5127117;27;20402;-71
2022/09/07 03:15:29;;;;;;;18.33;13.33;;;17.70;99.90;;;;;;5125648;27;20777;-71
2022/09/07 03:17:55;;;;;;;17.25;13.25;;;17.70;99.90;;;;;;5106374;28;20470;-71
2022/09/07 03:20:22;;;;;;;16.60;12.20;;;17.70;99.90;;;;;;5128520;28;21105;-71
2022/09/07 03:22:49;;;;;;;18.30;13.40;;;17.70;99.90;;;;;;5129260;27;21042;-71
2022/09/07 03:25:15;;;;;;;16.00;12.57;;;17.70;99.90;;;;;;5121294;27;21125;-71
2022/09/07 03:27:41;;;;;;;16.30;12.57;;;17.70;99.90;;;;;;5114734;28;20906;-71
2022/09/07 03:30:10;;;;;;;17.65;12.98;;;17.60;99.90;;;;;;5128034;27;20391;-71
2022/09/07 03:32:37;;;;;;;15.37;12.33;;;17.60;99.90;;;;;;5113605;28;20961;-71
2022/09/07 03:35:04;;;;;;;14.43;12.10;;;17.60;99.90;;;;;;5124794;27;20914;-71
2022/09/07 03:37:30;;;;;;;14.55;12.05;;;17.60;99.90;;;;;;5119537;27;20447;-71
2022/09/07 03:39:56;;;;;;;14.65;12.00;;;17.60;99.90;;;;;;5128701;27;20481;-72
2022/09/07 03:42:22;;;;;;;15.32;12.10;;;17.60;99.90;;;;;;5114482;27;20562;-71
2022/09/07 03:44:48;;;;;;;14.57;11.80;;;17.60;99.90;;;;;;5128452;28;20410;-71
2022/09/07 03:47:15;;;;;;;15.18;11.85;;;17.60;99.90;;;;;;5126709;28;20920;-71
2022/09/07 03:49:40;;;;;;;14.48;12.23;;;17.60;99.90;;;;;;5127138;27;20398;-71
2022/09/07 03:52:06;;;;;;;14.33;11.77;;;17.60;99.90;;;;;;5101609;28;20407;-71
2022/09/07 03:54:32;;;;;;;15.00;11.80;;;17.70;99.90;;;;;;5131615;27;20800;-71
2022/09/07 03:56:57;;;;;;;14.50;12.03;;;17.70;99.90;;;;;;5132723;27;20462;-72
2022/09/07 03:59:23;;;;;;;17.00;12.52;;;17.70;99.90;;;;;;5094926;27;20496;-71
2022/09/07 04:01:49;;;;;;;16.20;13.37;;;17.70;99.90;;;;;;5112378;27;20530;-71
2022/09/07 04:04:14;;;;;;;17.63;13.07;;;17.70;99.90;;;;;;5130803;27;20485;-71
2022/09/07 04:06:40;;;;;;;17.92;13.07;;;17.70;99.90;;;;;;5118382;27;20523;-71
2022/09/07 04:09:10;;;;;;;15.83;13.07;;;17.70;99.90;;;;;;5132181;27;20397;-71
2022/09/07 04:11:36;;;;;;;17.83;12.53;;;17.70;99.90;;;;;;5095240;27;20405;-71
2022/09/07 04:14:02;;;;;;;18.87;13.27;;;17.70;99.90;;;;;;5124619;27;20407;-71
2022/09/07 04:16:28;;;;;;;14.95;13.07;;;17.70;99.90;;;;;;5121519;27;20754;-71
2022/09/07 04:18:54;;;;;;;18.13;13.33;;;17.70;99.90;;;;;;5111263;28;20399;-71
2022/09/07 04:21:24;;;;;;;17.02;13.00;;;17.70;99.90;;;;;;5125064;27;20475;-71
2022/09/07 04:23:50;;;;;;;14.85;12.93;;;17.70;99.90;;;;;;5112031;27;20493;-71
2022/09/07 04:26:24;;;;;;;18.47;13.73;;;17.70;99.90;;;;;;5124613;27;20430;-71
2022/09/07 04:28:51;;;;;;;18.65;13.45;;;17.70;99.90;;;;;;5125404;27;20409;-70
2022/09/07 04:31:17;;;;;;;17.63;13.35;;;17.70;99.90;;;;;;5094216;27;20492;-71
2022/09/07 04:33:45;;;;;;;21.48;14.45;;;17.60;99.90;;;;;;5113294;27;20440;-71
2022/09/07 04:36:11;;;;;;;17.77;14.23;;;17.60;99.90;;;;;;5131299;27;20402;-71
2022/09/07 04:38:38;;;;;;;22.60;15.68;;;17.60;99.90;;;;;;5117648;27;21033;-71
2022/09/07 04:41:16;;;;;;;17.58;14.75;;;17.60;99.90;;;;;;5131199;27;20398;-71
2022/09/07 04:43:42;;;;;;;19.73;15.45;;;17.50;99.90;;;;;;5115316;27;20404;-72
2022/09/07 04:46:23;;;;;;;18.83;15.23;;;17.50;99.90;;;;;;5119326;27;20426;-71
2022/09/07 04:48:50;;;;;;;20.17;15.55;;;17.50;99.90;;;;;;5130766;27;20462;-71
2022/09/07 04:51:17;;;;;;;21.00;15.88;;;17.50;99.90;;;;;;5131109;27;20451;-72
2022/09/07 04:53:46;;;;;;;18.77;15.75;;;17.40;99.90;;;;;;5127315;27;20424;-71
2022/09/07 04:56:12;;;;;;;18.13;15.63;;;17.40;99.90;;;;;;5122877;27;20486;-71
2022/09/07 04:58:37;;;;;;;19.70;15.68;;;17.40;99.90;;;;;;5112838;27;20884;-71
2022/09/07 05:01:05;;;;;;;19.87;15.63;;;17.40;99.90;;;;;;5123091;27;20387;-71
2022/09/07 05:03:34;;;;;;;20.97;16.70;;;17.30;99.90;;;;;;5130156;27;20476;-71
2022/09/07 05:06:01;;;;;;;18.60;15.53;;;17.30;99.90;;;;;;5130380;27;20414;-70
2022/09/07 05:08:27;;;;;;;20.67;15.63;;;17.30;99.90;;;;;;5098276;27;21051;-71
2022/09/07 05:10:54;;;;;;;21.00;15.95;;;17.30;99.90;;;;;;5131211;27;20475;-71
2022/09/07 05:13:19;;;;;;;21.60;16.33;;;17.30;99.90;;;;;;5114970;27;20403;-71
2022/09/07 05:15:45;;;;;;;20.15;15.90;;;17.30;99.90;;;;;;5130793;27;20390;-71
2022/09/07 05:18:14;;;;;;;20.30;16.03;;;17.30;99.90;;;;;;5128059;27;20900;-71
2022/09/07 05:20:40;;;;;;;21.00;16.25;;;17.20;99.90;;;;;;5130602;27;20855;-71
2022/09/07 05:23:06;;;;;;;20.17;16.27;;;17.30;99.90;;;;;;5130209;27;20741;-71
2022/09/07 05:25:32;;;;;;;21.05;16.15;;;17.30;99.90;;;;;;5130245;27;20402;-70
2022/09/07 05:27:57;;;;;;;19.53;15.07;;;17.20;99.90;;;;;;5130199;27;20478;-71
2022/09/07 05:30:24;;;;;;;23.33;16.93;;;17.20;99.90;;;;;;5131342;27;20387;-72
2022/09/07 05:32:50;;;;;;;22.20;16.27;;;17.30;99.90;;;;;;5129843;27;20401;-71
2022/09/07 05:35:17;;;;;;;18.77;15.45;;;17.30;99.90;;;;;;5108901;28;20413;-71
2022/09/07 05:37:48;;;;;;;20.67;16.02;;;17.20;99.90;;;;;;5128274;27;20489;-71
2022/09/07 05:40:14;;;;;;;20.27;15.98;;;17.30;99.90;;;;;;5130061;27;20481;-71
2022/09/07 05:42:40;;;;;;;20.13;16.10;;;17.30;99.90;;;;;;5130542;27;20917;-71
2022/09/07 05:45:06;;;;;;;20.47;16.47;;;17.40;99.90;;;;;;5130417;27;20401;-71
2022/09/07 05:47:32;;;;;;;19.13;15.57;;;17.40;99.90;;;;;;5130369;27;20454;-71
2022/09/07 05:49:57;;;;;;;20.38;16.17;;;17.40;99.90;;;;;;5130289;27;20487;-71
2022/09/07 05:52:23;;;;;;;19.37;16.20;;;17.40;99.90;;;;;;5109819;28;20465;-71
2022/09/07 05:54:49;;;;;;;18.55;15.35;;;17.40;99.90;;;;;;5124186;27;20426;-71
2022/09/07 05:57:14;;;;;;;21.42;15.52;;;17.50;99.90;;;;;;5110397;28;20434;-71
2022/09/07 05:59:40;;;;;;;19.17;15.50;;;17.40;99.90;;;;;;5123864;27;21049;-71
2022/09/07 06:02:06;;;;;;;21.63;16.05;;;17.40;99.90;;;;;;5129701;27;20398;-71
2022/09/07 06:04:32;;;;;;;21.90;16.35;;;17.40;99.90;;;;;;5130068;27;20910;-72
2022/09/07 06:06:58;;;;;;;19.85;16.02;;;17.40;99.90;;;;;;5105791;27;20436;-71
2022/09/07 06:09:24;;;;;;;20.75;16.02;;;17.50;99.90;;;;;;5122615;27;20453;-71
2022/09/07 06:11:49;;;;;;;19.67;15.40;;;17.50;99.90;;;;;;5116623;27;20430;-71
2022/09/07 06:14:15;;;;;;;21.05;16.08;;;17.50;99.90;;;;;;5129569;27;20434;-71
2022/09/07 06:16:40;;;;;;;20.87;15.90;;;17.50;99.90;;;;;;5122924;27;20388;-71
2022/09/07 06:19:08;;;;;;;22.58;17.05;;;17.50;99.90;;;;;;5110393;27;20469;-71
2022/09/07 06:21:35;;;;;;;21.08;16.25;;;17.60;99.90;;;;;;5129531;27;20485;-72
2022/09/07 06:24:02;;;;;;;19.73;16.27;;;17.60;99.90;;;;;;5117517;27;20400;-72
2022/09/07 06:26:28;;;;;;;22.35;16.90;;;17.60;99.90;;;;;;5117314;27;20517;-71
2022/09/07 06:28:54;;;;;;;21.35;17.30;;;17.60;99.90;;;;;;5117715;27;20475;-72
2022/09/07 06:31:21;;;;;;;20.87;16.07;;;17.80;99.90;;;;;;5117173;27;20391;-72
2022/09/07 06:33:48;;;;;;;22.57;16.60;;;17.80;99.90;;;;;;5117577;27;20408;-72
2022/09/07 06:36:22;;;;;;;21.65;16.42;;;17.90;99.90;;;;;;5127505;27;20397;-72
2022/09/07 06:38:49;;;;;;;22.25;16.17;;;18.00;99.90;;;;;;5127504;27;20410;-72
2022/09/07 06:41:19;;;;;;;19.60;16.60;;;18.00;99.90;;;;;;5117177;27;20398;-71
2022/09/07 06:43:45;;;;;;;24.70;16.67;;;18.10;99.90;;;;;;5126093;27;20439;-71
2022/09/07 06:46:11;;;;;;;18.52;16.00;;;18.10;99.90;;;;;;5117839;27;20422;-72
2022/09/07 06:48:37;;;;;;;21.15;16.67;;;18.10;99.90;;;;;;5115574;27;20511;-72
2022/09/07 06:51:18;;;;;;;20.27;16.93;;;18.10;99.90;;;;;;5119897;27;20475;-71
2022/09/07 06:53:45;;;;;;;20.52;16.58;;;18.10;99.90;;;;;;5131223;27;20413;-72
2022/09/07 06:56:17;;;;;;;19.35;16.38;;;18.20;99.90;;;;;;5126477;27;20400;-72
2022/09/07 06:58:42;;;;;;;20.98;16.27;;;18.20;99.90;;;;;;5142389;27;20412;-72
2022/09/07 07:01:12;;;;;;;20.90;16.83;;;18.20;99.90;;;;;;5131183;28;20399;-71
2022/09/07 07:03:38;;;;;;;19.75;16.33;;;18.30;99.90;;;;;;5151393;27;20391;-71
2022/09/07 07:06:04;;;;;;;17.77;15.03;;;18.30;99.90;;;;;;5144588;27;20471;-73
2022/09/07 07:08:30;;;;;;;18.30;15.80;;;18.30;99.90;;;;;;5126246;27;20446;-72
2022/09/07 07:11:00;;;;;;;19.50;15.95;;;18.40;99.90;;;;;;5123601;27;20395;-72
2022/09/07 07:13:26;;;;;;;21.77;15.80;;;18.40;99.90;;;;;;5109672;28;20431;-72
2022/09/07 07:15:52;;;;;;;21.02;15.55;;;18.50;99.90;;;;;;5124851;27;20395;-71
2022/09/07 07:18:18;;;;;;;19.17;14.70;;;18.60;99.90;;;;;;5137965;27;20444;-72
2022/09/07 07:20:44;;;;;;;16.48;14.07;;;18.70;99.90;;;;;;5142818;27;20394;-72
2022/09/07 07:23:11;;;;;;;18.83;14.75;;;18.80;99.90;;;;;;5131735;28;20760;-72
2022/09/07 07:25:36;;;;;;;16.05;14.35;;;18.80;99.90;;;;;;5127480;27;20436;-72
2022/09/07 07:28:03;;;;;;;17.92;15.07;;;18.80;99.90;;;;;;5134491;27;20418;-73
2022/09/07 07:30:30;;;;;;;18.17;13.47;;;18.80;99.90;;;;;;5133132;27;20406;-72
2022/09/07 07:32:56;;;;;;;15.50;13.60;;;19.00;99.90;;;;;;5132874;27;20416;-72
2022/09/07 07:35:22;;;;;;;15.25;13.43;;;19.00;99.90;;;;;;5132894;27;20394;-72
2022/09/07 07:37:51;;;;;;;16.90;13.03;;;19.10;99.90;;;;;;5124945;27;20402;-72
2022/09/07 07:40:17;;;;;;;16.00;13.07;;;19.10;99.90;;;;;;5113651;27;20959;-71
2022/09/07 07:42:43;;;;;;;18.08;13.00;;;19.10;99.90;;;;;;5119183;27;20956;-72
2022/09/07 07:45:10;;;;;;;16.17;12.25;;;19.00;99.90;;;;;;5136047;27;20394;-72
2022/09/07 07:47:36;;;;;;;14.07;12.43;;;18.90;99.90;;;;;;5143982;27;20446;-72
2022/09/07 07:50:03;;;;;;;14.75;12.25;;;18.90;99.90;;;;;;5144556;27;20395;-72
2022/09/07 07:52:37;;;;;;;14.55;12.07;;;19.00;99.90;;;;;;5132040;27;20426;-71
2022/09/07 07:55:03;;;;;;;14.73;11.57;;;18.90;99.90;;;;;;5153993;27;20429;-71
2022/09/07 07:57:29;;;;;;;15.00;12.23;;;18.90;99.90;;;;;;5154090;27;20462;-71
2022/09/07 07:59:55;;;;;;;16.50;12.47;;;18.80;99.90;;;;;;5140832;27;20425;-72
2022/09/07 08:02:21;;;;;;;15.05;12.60;;;18.70;99.90;;;;;;5133626;27;20403;-71
2022/09/07 08:04:46;;;;;;;14.67;12.80;;;18.60;99.90;;;;;;5119629;27;20397;-71
2022/09/07 08:07:12;;;;;;;15.30;12.25;;;18.50;99.90;;;;;;5132853;27;20799;-71
2022/09/07 08:09:43;;;;;;;16.43;13.57;;;18.40;99.90;;;;;;5118970;27;20403;-71
2022/09/07 08:12:11;;;;;;;14.73;13.23;;;18.40;99.90;;;;;;5132786;27;20399;-71
2022/09/07 08:14:39;;;;;;;15.77;14.05;;;18.40;99.90;;;;;;5116650;27;20396;-72
2022/09/07 08:17:12;;;;;;;15.38;13.75;;;18.40;99.90;;;;;;5120974;27;20473;-71
2022/09/07 08:19:39;;;;;;;20.83;15.67;;;18.40;99.90;;;;;;5129278;27;20404;-71
2022/09/07 08:22:05;;;;;;;16.77;14.83;;;18.30;99.90;;;;;;5123757;27;20498;-71
2022/09/07 08:24:31;;;;;;;19.47;15.97;;;18.40;99.90;;;;;;5131841;27;20399;-71
2022/09/07 08:26:57;;;;;;;19.73;15.63;;;18.40;99.90;;;;;;5132180;27;20430;-71
2022/09/07 08:29:23;;;;;;;17.50;15.60;;;18.50;99.90;;;;;;5115014;27;20400;-71
2022/09/07 08:31:49;;;;;;;21.15;16.92;;;18.60;99.90;;;;;;5122423;27;20423;-71
2022/09/07 08:34:14;;;;;;;19.20;16.50;;;18.70;99.90;;;;;;5118023;27;20406;-71
2022/09/07 08:36:40;;;;;;;16.17;14.48;;;18.80;99.90;;;;;;5131916;27;20415;-71
2022/09/07 08:39:06;;;;;;;17.13;14.70;;;18.70;99.90;;;;;;5096415;27;20487;-71
2022/09/07 08:41:50;;;;;;;18.50;15.07;;;18.80;99.90;;;;;;5122474;27;20407;-72
2022/09/07 08:44:37;;;;;;;17.27;14.55;;;18.90;99.90;;;;;;5131020;27;20410;-71
2022/09/07 08:47:05;;;;;;;17.05;14.90;;;18.90;99.90;;;;;;5114754;27;20420;-71
2022/09/07 08:49:47;;;;;;;17.88;14.65;;;18.90;99.90;;;;;;5121695;27;20398;-71
2022/09/07 08:52:17;;;;;;;17.45;14.45;;;18.90;99.90;;;;;;5131268;27;20434;-71
2022/09/07 08:54:57;;;;;;;15.70;13.50;;;19.00;99.90;;;;;;5131516;27;20819;-71
2022/09/07 08:57:31;;;;;;;16.55;13.90;;;19.10;99.90;;;;;;5119128;27;20394;-72
2022/09/07 09:00:06;;;;;;;18.53;13.83;;;19.10;99.90;;;;;;5131260;27;20395;-72
2022/09/07 09:02:32;;;;;;;15.85;13.80;;;19.20;99.90;;;;;;5120624;27;20810;-71
2022/09/07 09:04:58;;;;;;;15.82;14.05;;;19.20;99.90;;;;;;5127863;27;20398;-72
2022/09/07 09:07:39;;;;;;;16.27;13.70;;;19.30;99.90;;;;;;5130731;27;20479;-71
2022/09/07 09:10:16;;;;;;;14.45;12.95;;;19.30;99.90;;;;;;5130229;27;20401;-71
2022/09/07 09:13:14;;;;;;;16.63;13.80;;;19.40;99.90;;;;;;5130573;27;20752;-71
2022/09/07 09:16:14;;;;;;;17.13;13.60;;;19.40;99.90;;;;;;5131113;27;20421;-71
2022/09/07 09:18:51;;;;;;;16.33;13.77;;;19.50;99.90;;;;;;5120767;27;20406;-71
2022/09/07 09:21:18;;;;;;;15.35;13.75;;;19.60;99.90;;;;;;5130921;27;20895;-71
2022/09/07 09:23:48;;;;;;;16.42;13.85;;;19.60;99.90;;;;;;5131039;27;20394;-71
2022/09/07 09:26:21;;;;;;;17.37;13.43;;;19.70;99.90;;;;;;5130378;27;20422;-71
2022/09/07 09:28:47;;;;;;;15.55;13.90;;;19.80;99.90;;;;;;5130698;27;20398;-71
2022/09/07 09:31:22;;;;;;;15.82;14.13;;;19.80;99.90;;;;;;5130592;27;20568;-70
2022/09/07 09:34:10;;;;;;;16.23;14.10;;;19.90;99.90;;;;;;5130238;27;20429;-71
2022/09/07 09:36:55;;;;;;;15.65;13.55;;;20.00;99.90;;;;;;5130553;27;20407;-71
2022/09/07 09:39:31;;;;;;;17.08;13.95;;;20.10;99.90;;;;;;5109652;27;20432;-70
2022/09/07 09:42:19;;;;;;;17.42;14.50;;;20.20;99.90;;;;;;5124455;27;20405;-72
2022/09/07 09:44:45;;;;;;;17.50;13.48;;;20.30;99.90;;;;;;5119606;27;20413;-71
2022/09/07 09:47:29;;;;;;;16.07;13.97;;;20.40;99.90;;;;;;5125836;27;20917;-71
2022/09/07 09:49:56;;;;;;;17.40;13.63;;;20.50;99.90;;;;;;5122799;27;20430;-71
2022/09/07 09:52:23;;;;;;;16.52;13.95;;;20.60;99.90;;;;;;5116829;27;20955;-71
2022/09/07 09:54:52;;;;;;;16.50;13.88;;;20.60;99.90;;;;;;5129916;27;21213;-71
2022/09/07 09:57:49;;;;;;;17.05;14.20;;;20.70;99.90;;;;;;5109709;28;20484;-72
2022/09/07 10:00:18;;;;;;;16.80;14.35;;;20.70;99.90;;;;;;5123388;27;20810;-72
2022/09/07 10:03:06;;;;;;;18.77;14.15;;;20.80;99.90;;;;;;5122374;27;20477;-71
2022/09/07 10:05:36;;;;;;;17.55;14.35;;;20.80;99.90;;;;;;5118363;27;20403;-71
2022/09/07 10:08:13;;;;;;;21.47;13.70;;;20.80;99.90;;;;;;5113607;27;20407;-71
2022/09/07 10:10:49;;;;;;;17.17;14.07;;;20.90;99.90;;;;;;5108465;28;20407;-71
2022/09/07 10:13:34;;;;;;;15.43;13.40;;;20.80;99.90;;;;;;5113243;27;20753;-71
2022/09/07 10:16:04;;;;;;;15.98;13.68;;;20.80;99.90;;;;;;5116441;27;21385;-71
2022/09/07 10:18:36;;;;;;;19.80;14.52;;;20.70;99.90;;;;;;5129548;27;20395;-72
2022/09/07 10:21:27;;;;;;;18.92;15.02;;;20.70;99.90;;;;;;5114390;27;20408;-71
2022/09/07 10:24:06;;;;;;;16.77;14.02;;;20.80;99.90;;;;;;5106333;27;20413;-72
2022/09/07 10:26:34;;;;;;;16.25;14.18;;;20.90;99.90;;;;;;5117215;27;20429;-72
2022/09/07 10:29:26;;;;;;;19.23;14.00;;;20.90;99.90;;;;;;5128472;27;20407;-71
2022/09/07 10:32:25;;;;;;;17.52;14.07;;;20.90;99.90;;;;;;5095815;28;20413;-71
2022/09/07 10:35:21;;;;;;;17.83;14.55;;;20.80;99.90;;;;;;5096861;28;20411;-71
2022/09/07 10:37:56;;;;;;;18.77;13.95;;;20.80;99.90;;;;;;5109348;27;20769;-71
2022/09/07 10:40:50;;;;;;;16.65;13.38;;;20.90;99.90;;;;;;5123534;27;20410;-71
2022/09/07 10:43:43;;;;;;;15.80;12.43;;;21.00;99.90;;;;;;5129531;27;20497;-71
2022/09/07 10:46:42;;;;;;;15.23;12.63;;;21.20;99.90;;;;;;5117962;27;20476;-71
2022/09/07 10:49:31;;;;;;;12.77;10.85;;;21.30;99.90;;;;;;5116200;27;20773;-71
2022/09/07 10:52:18;;;;;;;13.38;10.40;;;21.40;99.90;;;;;;5128152;27;20815;-71
2022/09/07 10:55:13;;;;;;;11.65;10.15;;;21.50;99.90;;;;;;5090749;28;20487;-71
2022/09/07 10:57:45;;;;;;;12.38;10.45;;;21.70;99.90;;;;;;5047161;28;20437;-71
2022/09/07 11:00:19;;;;;;;13.95;10.45;;;21.80;99.90;;;;;;5123636;27;20390;-71
2022/09/07 11:03:18;;;;;;;12.13;10.50;;;22.00;99.90;;;;;;5128027;27;20818;-72
2022/09/07 11:06:09;;;;;;;12.68;10.60;;;22.20;99.90;;;;;;5113138;27;20442;-71
2022/09/07 11:08:53;;;;;;;13.02;10.68;;;22.50;99.90;;;;;;5111765;27;20415;-71
2022/09/07 11:11:28;;;;;;;11.98;10.15;;;22.60;99.90;;;;;;5098131;28;20440;-71
2022/09/07 11:13:59;;;;;;;12.20;9.65;;;23.10;99.90;;;;;;5113714;27;20395;-72
2022/09/07 11:16:27;;;;;;;11.07;8.98;;;23.60;99.90;;;;;;5114645;27;20396;-71
2022/09/07 11:19:11;;;;;;;11.20;9.07;;;23.80;99.90;;;;;;5107428;28;20392;-71
2022/09/07 11:21:44;;;;;;;10.43;8.75;;;24.50;99.90;;;;;;5123715;28;20408;-72
2022/09/07 11:24:33;;;;;;;12.32;9.55;;;24.90;99.10;;;;;;5127381;28;20426;-72
2022/09/07 11:27:27;;;;;;;11.35;8.60;;;24.90;98.60;;;;;;5127963;27;20454;-72
2022/09/07 11:30:03;;;;;;;11.18;8.63;;;24.90;97.90;;;;;;5099726;28;20403;-72
2022/09/07 11:32:34;;;;;;;9.43;7.70;;;24.80;98.30;;;;;;5113705;28;20462;-72
2022/09/07 11:35:25;;;;;;;11.77;9.30;;;24.70;97.70;;;;;;5114967;28;20396;-72
2022/09/07 11:37:58;;;;;;;10.50;7.85;;;24.50;97.50;;;;;;5064299;27;20426;-72
2022/09/07 11:40:40;;;;;;;10.40;8.57;;;24.20;97.40;;;;;;5127365;27;20395;-72
2022/09/07 11:43:27;;;;;;;11.63;8.57;;;24.10;97.40;;;;;;5127406;28;20394;-72
2022/09/07 11:46:13;;;;;;;10.23;8.38;;;24.00;97.80;;;;;;5097776;28;20425;-71
2022/09/07 11:48:47;;;;;;;10.47;8.40;;;23.90;97.80;;;;;;5127435;28;20406;-72
2022/09/07 11:51:38;;;;;;;10.15;8.05;;;23.90;97.70;;;;;;5114866;27;20401;-72
2022/09/07 11:54:23;;;;;;;11.27;8.55;;;23.80;98.00;;;;;;5116627;28;20421;-72
2022/09/07 11:56:56;;;;;;;8.82;7.57;;;23.90;98.00;;;;;;5126947;28;20406;-72
2022/09/07 11:59:36;;;;;;;9.63;7.43;;;24.20;97.90;;;;;;5127434;28;20398;-72
2022/09/07 12:02:36;;;;;;;9.15;7.22;;;24.30;97.20;;;;;;5115508;28;20414;-72
2022/09/07 12:05:37;;;;;;;8.98;7.22;;;24.40;97.40;;;;;;5128000;28;20403;-71
2022/09/07 12:08:12;;;;;;;10.23;7.00;;;24.60;96.80;;;;;;5113885;27;20473;-71
2022/09/07 12:11:06;;;;;;;7.65;6.57;;;25.10;97.00;;;;;;5127830;27;20459;-71
2022/09/07 12:13:41;;;;;;;7.20;6.00;;;25.60;95.90;;;;;;5120949;27;20830;-72
2022/09/07 12:16:20;;;;;;;10.50;5.75;;;25.50;95.00;;;;;;5118343;27;20407;-72
2022/09/07 12:19:16;;;;;;;7.18;5.70;;;25.40;95.10;;;;;;5132117;27;20434;-71
2022/09/07 12:21:51;;;;;;;7.10;5.20;;;25.70;95.20;;;;;;5121690;27;20979;-71
2022/09/07 12:24:35;;;;;;;7.07;5.20;;;26.30;95.30;;;;;;5132082;27;20789;-72
2022/09/07 12:27:08;;;;;;;6.97;5.30;;;26.80;94.80;;;;;;5131820;27;20490;-72
2022/09/07 12:29:33;;;;;;;5.75;3.65;;;27.50;94.30;;;;;;5132048;27;20399;-72
2022/09/07 12:32:02;;;;;;;4.17;3.30;;;28.20;93.00;;;;;;5131867;27;20413;-72
2022/09/07 12:34:31;;;;;;;4.13;3.20;;;28.50;91.70;;;;;;5132011;27;20910;-70
2022/09/07 12:37:25;;;;;;;4.90;3.80;;;28.70;91.10;;;;;;5131467;27;20406;-70
2022/09/07 12:40:26;;;;;;;7.13;4.57;;;29.30;90.80;;;;;;5131388;27;20399;-70
2022/09/07 12:43:13;;;;;;;5.13;3.30;;;29.90;89.60;;;;;;5131540;27;21264;-69
2022/09/07 12:45:39;;;;;;;5.40;3.47;;;30.30;88.30;;;;;;5131132;27;20435;-70
2022/09/07 12:48:13;;;;;;;4.70;3.30;;;30.60;86.60;;;;;;5131457;27;20513;-72
2022/09/07 12:51:09;;;;;;;4.55;2.80;;;30.70;86.30;;;;;;5119004;27;20398;-71
2022/09/07 12:53:53;;;;;;;4.65;2.92;;;30.90;85.90;;;;;;5131409;27;20391;-71
2022/09/07 12:56:27;;;;;;;3.47;2.47;;;31.10;84.40;;;;;;5099427;27;20480;-71
2022/09/07 12:59:07;;;;;;;5.00;2.70;;;31.30;82.60;;;;;;5131050;27;20398;-71